createdAt,value
2023-02-25T00:01:14.607Z,30.37
2023-02-25T00:03:42.422Z,21.77
2023-02-25T00:06:14.729Z,21.75
2023-02-25T00:08:46.126Z,25.75
2023-02-25T00:11:15.724Z,21.58
2023-02-25T00:13:43.989Z,28.83
2023-02-25T00:16:12.558Z,22.73
2023-02-25T00:18:44.248Z,24.42
2023-02-25T00:21:15.412Z,33.28
2023-02-25T00:23:47.966Z,22.70
2023-02-25T00:26:17.112Z,26.12
2023-02-25T00:28:44.601Z,27.62
2023-02-25T00:31:20.354Z,25.12
2023-02-25T00:33:49.027Z,23.80
2023-02-25T00:36:20.775Z,20.92
2023-02-25T00:38:53.257Z,26.48
2023-02-25T00:41:23.512Z,30.35
2023-02-25T00:43:56.909Z,23.83
2023-02-25T00:46:24.743Z,27.98
2023-02-25T00:48:52.559Z,23.02
2023-02-25T00:51:23.106Z,22.62
2023-02-25T00:53:52.041Z,22.65
2023-02-25T00:56:20.495Z,24.63
2023-02-25T00:58:49.469Z,28.15
2023-02-25T01:01:19.062Z,29.65
2023-02-25T01:03:48.410Z,23.52
2023-02-25T01:06:15.814Z,23.92
2023-02-25T01:08:43.884Z,20.65
2023-02-25T01:11:17.178Z,23.83
2023-02-25T01:13:44.499Z,22.35
2023-02-25T01:16:21.444Z,19.42
2023-02-25T01:18:52.596Z,22.65
2023-02-25T01:21:30.544Z,22.80
2023-02-25T01:24:01.312Z,20.48
2023-02-25T01:26:32.106Z,19.25
2023-02-25T01:28:59.348Z,21.27
2023-02-25T01:31:31.482Z,22.80
2023-02-25T01:34:00.753Z,20.65
2023-02-25T01:36:29.193Z,24.75
2023-02-25T01:38:57.709Z,24.02
2023-02-25T01:41:28.018Z,24.30
2023-02-25T01:44:29.390Z,23.80
2023-02-25T01:46:56.872Z,25.35
2023-02-25T01:49:33.004Z,19.50
2023-02-25T01:52:08.425Z,23.58
2023-02-25T01:54:37.243Z,19.77
2023-02-25T01:57:11.028Z,21.60
2023-02-25T01:59:40.249Z,23.42
2023-02-25T02:02:09.656Z,22.48
2023-02-25T02:04:39.023Z,24.00
2023-02-25T02:07:07.151Z,19.23
2023-02-25T02:09:34.815Z,23.80
2023-02-25T02:12:06.488Z,23.60
2023-02-25T02:14:38.149Z,25.75
2023-02-25T02:17:48.355Z,22.55
2023-02-25T02:20:20.654Z,21.60
2023-02-25T02:23:14.785Z,22.05
2023-02-25T02:26:00.868Z,26.15
2023-02-25T02:28:43.113Z,27.85
2023-02-25T02:31:22.392Z,17.80
2023-02-25T02:34:03.400Z,29.98
2023-02-25T02:36:49.396Z,18.52
2023-02-25T02:39:35.011Z,22.15
2023-02-25T02:42:17.964Z,24.12
2023-02-25T02:44:51.125Z,22.37
2023-02-25T02:47:38.535Z,20.00
2023-02-25T02:50:14.032Z,29.52
2023-02-25T02:52:47.635Z,27.25
2023-02-25T02:55:24.717Z,26.37
2023-02-25T02:57:58.342Z,24.95
2023-02-25T03:00:30.418Z,21.12
2023-02-25T03:03:20.278Z,23.90
2023-02-25T03:05:51.063Z,20.55
2023-02-25T03:08:30.177Z,26.42
2023-02-25T03:10:57.642Z,27.27
2023-02-25T03:13:25.501Z,23.15
2023-02-25T03:15:53.892Z,20.67
2023-02-25T03:18:20.906Z,19.27
2023-02-25T03:20:50.995Z,26.25
2023-02-25T03:23:23.614Z,30.35
2023-02-25T03:26:00.264Z,21.08
2023-02-25T03:28:31.836Z,24.87
2023-02-25T03:31:13.004Z,21.20
2023-02-25T03:33:48.566Z,21.55
2023-02-25T03:36:26.984Z,29.80
2023-02-25T03:38:59.419Z,20.40
2023-02-25T03:41:35.378Z,25.83
2023-02-25T03:44:08.497Z,21.50
2023-02-25T03:46:37.103Z,20.70
2023-02-25T03:49:05.640Z,18.48
2023-02-25T03:51:36.331Z,18.05
2023-02-25T03:54:04.205Z,21.98
2023-02-25T03:56:41.253Z,19.05
2023-02-25T03:59:08.733Z,24.73
2023-02-25T04:01:37.844Z,23.12
2023-02-25T04:04:05.359Z,29.70
2023-02-25T04:06:32.479Z,16.77
2023-02-25T04:08:59.818Z,24.55
2023-02-25T04:11:27.324Z,21.23
2023-02-25T04:13:54.662Z,18.23
2023-02-25T04:16:22.304Z,21.23
2023-02-25T04:18:49.966Z,24.17
2023-02-25T04:21:32.271Z,22.37
2023-02-25T04:23:59.975Z,21.62
2023-02-25T04:26:27.388Z,16.52
2023-02-25T04:28:54.707Z,17.27
2023-02-25T04:31:22.321Z,18.05
2023-02-25T04:33:49.610Z,18.23
2023-02-25T04:36:27.540Z,22.17
2023-02-25T04:38:55.633Z,19.42
2023-02-25T04:41:24.262Z,17.15
2023-02-25T04:43:51.403Z,16.60
2023-02-25T04:46:19.033Z,16.62
2023-02-25T04:48:46.181Z,19.40
2023-02-25T04:51:13.599Z,24.67
2023-02-25T04:53:40.977Z,28.15
2023-02-25T04:56:09.993Z,22.55
2023-02-25T04:58:37.957Z,19.05
2023-02-25T05:01:07.123Z,25.00
2023-02-25T05:03:34.850Z,20.62
2023-02-25T05:06:03.003Z,17.75
2023-02-25T05:08:30.450Z,19.87
2023-02-25T05:10:57.636Z,10.20
2023-02-25T05:13:24.740Z,12.48
2023-02-25T05:15:52.251Z,13.43
2023-02-25T05:18:19.396Z,9.45
2023-02-25T05:20:47.899Z,9.55
2023-02-25T05:23:15.235Z,10.52
2023-02-25T05:25:42.378Z,11.48
2023-02-25T05:28:11.148Z,10.60
2023-02-25T05:30:39.259Z,8.07
2023-02-25T05:33:09.125Z,8.35
2023-02-25T05:35:40.815Z,9.57
2023-02-25T05:38:08.232Z,11.50
2023-02-25T05:40:36.271Z,5.80
2023-02-25T05:43:03.382Z,4.90
2023-02-25T05:45:30.789Z,5.12
2023-02-25T05:47:58.248Z,6.35
2023-02-25T05:50:25.442Z,6.05
2023-02-25T05:52:52.836Z,4.18
2023-02-25T05:55:20.210Z,8.32
2023-02-25T05:57:47.299Z,4.65
2023-02-25T06:00:15.293Z,6.12
2023-02-25T06:02:44.358Z,3.80
2023-02-25T06:05:11.653Z,4.25
2023-02-25T06:07:38.774Z,3.65
2023-02-25T06:10:06.761Z,5.60
2023-02-25T06:12:34.601Z,3.58
2023-02-25T06:15:01.728Z,3.58
2023-02-25T06:17:29.182Z,4.15
2023-02-25T06:19:56.341Z,2.78
2023-02-25T06:22:24.593Z,2.58
2023-02-25T06:24:51.976Z,3.83
2023-02-25T06:27:20.493Z,3.47
2023-02-25T06:29:48.897Z,3.05
2023-02-25T06:32:17.109Z,3.00
2023-02-25T06:34:44.436Z,3.60
2023-02-25T06:37:11.532Z,2.67
2023-02-25T06:39:43.210Z,2.87
2023-02-25T06:42:10.686Z,2.12
2023-02-25T06:44:37.944Z,5.00
2023-02-25T06:47:05.595Z,3.12
2023-02-25T06:49:32.699Z,4.03
2023-02-25T06:52:00.132Z,4.70
2023-02-25T06:54:28.021Z,4.22
2023-02-25T06:56:55.788Z,4.57
2023-02-25T06:59:22.977Z,4.80
2023-02-25T07:01:50.378Z,4.03
2023-02-25T07:04:19.027Z,4.70
2023-02-25T07:06:46.230Z,5.53
2023-02-25T07:09:13.654Z,6.53
2023-02-25T07:11:40.763Z,5.68
2023-02-25T07:14:07.819Z,9.52
2023-02-25T07:16:35.141Z,6.93
2023-02-25T07:19:02.496Z,4.82
2023-02-25T07:21:31.081Z,5.97
2023-02-25T07:23:58.768Z,3.83
2023-02-25T07:26:28.636Z,4.20
2023-02-25T07:28:57.609Z,2.37
2023-02-25T07:31:26.892Z,2.42
2023-02-25T07:33:55.375Z,2.65
2023-02-25T07:36:23.060Z,2.65
2023-02-25T07:38:50.357Z,3.67
2023-02-25T07:41:19.078Z,2.33
2023-02-25T07:43:46.358Z,3.80
2023-02-25T07:46:13.855Z,2.58
2023-02-25T07:48:41.292Z,2.40
2023-02-25T07:51:15.533Z,2.17
2023-02-25T07:53:43.084Z,3.17
2023-02-25T07:56:11.230Z,1.90
2023-02-25T07:58:38.461Z,2.25
2023-02-25T08:01:19.665Z,1.48
2023-02-25T08:03:49.668Z,3.92
2023-02-25T08:06:17.070Z,2.70
2023-02-25T08:08:44.147Z,2.28
2023-02-25T08:11:14.019Z,2.55
2023-02-25T08:13:44.008Z,3.30
2023-02-25T08:16:14.701Z,3.75
2023-02-25T08:18:45.531Z,3.28
2023-02-25T08:21:15.551Z,4.10
2023-02-25T08:23:42.588Z,2.87
2023-02-25T08:26:10.200Z,4.45
2023-02-25T08:28:37.726Z,4.10
2023-02-25T08:31:08.311Z,5.32
2023-02-25T08:33:35.501Z,4.37
2023-02-25T08:36:12.291Z,3.40
2023-02-25T08:38:39.450Z,5.05
2023-02-25T08:41:07.873Z,3.15
2023-02-25T08:43:35.734Z,2.92
2023-02-25T08:46:03.619Z,2.45
2023-02-25T08:48:31.796Z,2.67
2023-02-25T08:51:08.492Z,2.33
2023-02-25T08:53:40.343Z,1.60
2023-02-25T08:56:09.687Z,3.15
2023-02-25T08:58:37.777Z,2.72
2023-02-25T09:01:15.158Z,2.78
2023-02-25T09:03:53.827Z,3.10
2023-02-25T09:06:23.299Z,1.35
2023-02-25T09:08:52.685Z,2.33
2023-02-25T09:11:20.799Z,1.80
2023-02-25T09:13:48.147Z,2.40
2023-02-25T09:16:17.482Z,2.22
2023-02-25T09:18:46.062Z,2.22
2023-02-25T09:21:14.109Z,2.92
2023-02-25T09:23:42.246Z,2.62
2023-02-25T09:26:10.080Z,2.17
2023-02-25T09:28:37.269Z,3.53
2023-02-25T09:31:04.857Z,3.35
2023-02-25T09:33:33.370Z,2.25
2023-02-25T09:36:15.336Z,3.65
2023-02-25T09:38:44.091Z,2.62
2023-02-25T09:41:26.474Z,2.17
2023-02-25T09:44:20.631Z,6.30
2023-02-25T09:47:16.216Z,2.83
2023-02-25T09:49:54.237Z,3.55
2023-02-25T09:52:47.118Z,2.90
2023-02-25T09:55:30.962Z,3.10
2023-02-25T09:58:02.952Z,2.90
2023-02-25T10:00:33.906Z,2.78
2023-02-25T10:03:55.754Z,3.08
2023-02-25T10:06:25.596Z,3.22
2023-02-25T10:09:01.205Z,3.22
2023-02-25T10:11:37.332Z,2.53
2023-02-25T10:14:15.083Z,6.78
2023-02-25T10:16:57.351Z,2.25
2023-02-25T10:19:37.176Z,1.42
2023-02-25T10:22:17.336Z,1.42
2023-02-25T10:25:00.138Z,2.45
2023-02-25T10:27:39.642Z,3.03
2023-02-25T10:30:13.090Z,2.65
2023-02-25T10:32:43.408Z,1.62
2023-02-25T10:35:29.061Z,0.93
2023-02-25T10:37:56.113Z,2.28
2023-02-25T10:40:26.720Z,1.98
2023-02-25T10:42:56.382Z,2.40
2023-02-25T10:45:29.132Z,1.33
2023-02-25T10:48:07.476Z,2.70
2023-02-25T10:50:45.439Z,2.12
2023-02-25T10:53:16.709Z,1.70
2023-02-25T10:55:44.050Z,5.65
2023-02-25T10:58:26.461Z,3.30
2023-02-25T11:01:21.788Z,1.10
2023-02-25T11:03:54.312Z,2.60
2023-02-25T11:06:36.285Z,4.25
2023-02-25T11:09:23.183Z,2.97
2023-02-25T11:11:57.573Z,2.40
2023-02-25T11:14:30.383Z,2.97
2023-02-25T11:17:20.850Z,1.73
2023-02-25T11:20:00.358Z,1.25
2023-02-25T11:22:40.015Z,2.58
2023-02-25T11:25:16.987Z,1.27
2023-02-25T11:27:54.747Z,0.88
2023-02-25T11:30:30.386Z,1.15
2023-02-25T11:32:58.273Z,1.70
2023-02-25T11:35:35.611Z,1.08
2023-02-25T11:38:14.995Z,2.10
2023-02-25T11:40:45.050Z,1.08
2023-02-25T11:43:19.381Z,0.88
2023-02-25T11:46:23.620Z,0.90
2023-02-25T11:49:02.205Z,0.52
2023-02-25T11:51:47.069Z,1.30
2023-02-25T11:54:20.223Z,1.15
2023-02-25T11:56:51.598Z,2.08
2023-02-25T11:59:40.426Z,1.37
2023-02-25T12:02:28.549Z,6.10
2023-02-25T12:05:23.983Z,3.17
2023-02-25T12:08:30.511Z,1.70
2023-02-25T12:11:35.269Z,1.40
2023-02-25T12:14:42.953Z,7.80
2023-02-25T12:17:19.359Z,4.30
2023-02-25T12:20:01.790Z,1.70
2023-02-25T12:23:26.200Z,1.02
2023-02-25T12:26:22.330Z,1.48
2023-02-25T12:28:56.745Z,0.90
2023-02-25T12:31:52.959Z,1.12
2023-02-25T12:34:44.939Z,2.42
2023-02-25T12:37:33.917Z,2.47
2023-02-25T12:40:04.438Z,1.05
2023-02-25T12:42:38.049Z,1.70
2023-02-25T12:45:48.595Z,1.98
2023-02-25T12:48:36.192Z,1.17
2023-02-25T12:51:09.501Z,3.50
2023-02-25T12:53:48.440Z,0.93
2023-02-25T12:56:24.525Z,4.05
2023-02-25T12:59:16.449Z,1.20
2023-02-25T13:02:16.046Z,5.15
2023-02-25T13:05:16.931Z,0.40
2023-02-25T13:08:09.484Z,0.82
2023-02-25T13:11:13.889Z,2.35
2023-02-25T13:14:01.558Z,1.80
2023-02-25T13:16:58.674Z,2.28
2023-02-25T13:19:51.559Z,2.55
2023-02-25T13:22:41.145Z,1.45
2023-02-25T13:25:19.291Z,2.92
2023-02-25T13:28:00.779Z,2.75
2023-02-25T13:31:01.104Z,1.37
2023-02-25T13:33:58.795Z,2.75
2023-02-25T13:37:14.703Z,1.00
2023-02-25T13:43:05.416Z,1.20
2023-02-25T13:46:10.161Z,1.58
2023-02-25T13:48:49.832Z,1.30
2023-02-25T13:51:30.831Z,2.10
2023-02-25T13:53:58.177Z,0.30
2023-02-25T13:56:44.167Z,0.47
2023-02-25T13:59:33.766Z,1.55
2023-02-25T14:02:31.922Z,1.00
2023-02-25T14:05:08.154Z,7.68
2023-02-25T14:08:12.143Z,1.17
2023-02-25T14:11:13.782Z,3.42
2023-02-25T14:13:51.634Z,1.20
2023-02-25T14:16:37.600Z,1.58
2023-02-25T14:19:19.561Z,0.98
2023-02-25T14:21:55.967Z,1.33
2023-02-25T14:24:28.895Z,1.30
2023-02-25T14:27:04.945Z,1.42
2023-02-25T14:29:51.240Z,2.83
2023-02-25T14:32:28.449Z,1.37
2023-02-25T14:35:13.999Z,2.55
2023-02-25T14:37:59.975Z,0.20
2023-02-25T14:40:37.321Z,1.27
2023-02-25T14:43:31.475Z,0.88
2023-02-25T14:46:04.325Z,1.08
2023-02-25T14:48:48.003Z,0.52
2023-02-25T14:51:50.918Z,18.05
2023-02-25T14:54:43.024Z,1.23
2023-02-25T14:57:46.879Z,3.75
2023-02-25T15:00:14.421Z,1.45
2023-02-25T15:02:58.407Z,4.57
2023-02-25T15:05:40.723Z,1.35
2023-02-25T15:08:19.072Z,3.62
2023-02-25T15:11:19.757Z,2.25
2023-02-25T15:14:14.864Z,3.30
2023-02-25T15:16:54.291Z,7.37
2023-02-25T15:19:51.578Z,1.77
2023-02-25T15:22:19.050Z,5.47
2023-02-25T15:24:46.574Z,2.60
2023-02-25T15:27:32.336Z,1.10
2023-02-25T15:30:06.363Z,2.83
2023-02-25T15:33:10.803Z,0.90
2023-02-25T15:35:38.128Z,2.10
2023-02-25T15:38:13.556Z,1.58
2023-02-25T15:40:45.266Z,0.57
2023-02-25T15:43:15.264Z,3.12
2023-02-25T15:45:44.377Z,1.35
2023-02-25T15:48:11.453Z,2.75
2023-02-25T15:51:00.211Z,1.05
2023-02-25T15:53:28.596Z,0.93
2023-02-25T15:56:04.811Z,2.17
2023-02-25T15:58:32.199Z,1.48
2023-02-25T16:01:02.959Z,4.22
2023-02-25T16:03:36.181Z,1.08
2023-02-25T16:06:21.218Z,1.15
2023-02-25T16:09:01.061Z,2.80
2023-02-25T16:11:42.454Z,1.42
2023-02-25T16:14:34.461Z,1.20
2023-02-25T16:17:19.286Z,2.72
2023-02-25T16:19:51.773Z,9.15
2023-02-25T16:22:22.987Z,4.65
2023-02-25T16:24:56.101Z,6.03
2023-02-25T16:27:52.430Z,2.42
2023-02-25T16:30:31.151Z,3.05
2023-02-25T16:33:25.845Z,3.78
2023-02-25T16:36:07.805Z,4.53
2023-02-25T16:39:05.495Z,3.75
2023-02-25T16:41:38.495Z,8.07
2023-02-25T16:44:06.858Z,9.85
2023-02-25T16:46:37.560Z,7.72
2023-02-25T16:49:21.076Z,5.35
2023-02-25T16:51:48.657Z,4.82
2023-02-25T16:54:28.909Z,5.30
2023-02-25T16:57:00.545Z,2.42
2023-02-25T16:59:32.437Z,3.15
2023-02-25T17:02:21.828Z,1.85
2023-02-25T17:04:54.647Z,2.12
2023-02-25T17:07:22.907Z,3.72
2023-02-25T17:10:04.662Z,3.30
2023-02-25T17:12:34.961Z,8.25
2023-02-25T17:15:05.869Z,2.58
2023-02-25T17:17:39.957Z,2.37
2023-02-25T17:20:18.113Z,3.42
2023-02-25T17:22:45.939Z,3.30
2023-02-25T17:25:18.106Z,7.93
2023-02-25T17:27:48.608Z,5.57
2023-02-25T17:30:37.668Z,6.72
2023-02-25T17:33:05.691Z,5.45
2023-02-25T17:35:35.055Z,3.83
2023-02-25T17:38:02.628Z,3.83
2023-02-25T17:40:30.319Z,2.60
2023-02-25T17:43:33.806Z,3.05
2023-02-25T17:46:14.628Z,3.20
2023-02-25T17:48:49.797Z,5.35
2023-02-25T17:51:17.470Z,1.48
2023-02-25T17:53:50.325Z,4.85
2023-02-25T17:56:25.394Z,5.47
2023-02-25T17:58:58.533Z,7.82
2023-02-25T18:01:31.581Z,8.20
2023-02-25T18:04:05.540Z,7.50
2023-02-25T18:06:44.558Z,7.07
2023-02-25T18:09:38.186Z,4.47
2023-02-25T18:12:11.896Z,10.93
2023-02-25T18:14:43.482Z,2.83
2023-02-25T18:17:18.172Z,3.83
2023-02-25T18:19:46.293Z,3.00
2023-02-25T18:22:31.372Z,10.40
2023-02-25T18:25:02.417Z,5.60
2023-02-25T18:27:37.736Z,4.22
2023-02-25T18:30:19.879Z,4.65
2023-02-25T18:32:47.315Z,3.85
2023-02-25T18:35:15.446Z,5.47
2023-02-25T18:37:46.319Z,5.47
2023-02-25T18:40:29.840Z,7.12
2023-02-25T18:42:58.978Z,5.62
2023-02-25T18:45:28.365Z,4.50
2023-02-25T18:48:00.448Z,3.12
2023-02-25T18:50:32.536Z,5.70
2023-02-25T18:53:00.926Z,2.00
2023-02-25T18:55:30.894Z,2.17
2023-02-25T18:57:58.740Z,3.78
2023-02-25T19:00:30.086Z,2.30
2023-02-25T19:03:02.888Z,5.40
2023-02-25T19:05:30.640Z,3.78
2023-02-25T19:07:58.098Z,2.62
2023-02-25T19:10:26.901Z,3.85
2023-02-25T19:13:01.077Z,3.08
2023-02-25T19:15:28.481Z,1.42
2023-02-25T19:17:55.739Z,1.77
2023-02-25T19:20:23.177Z,1.83
2023-02-25T19:22:52.560Z,2.60
2023-02-25T19:25:24.997Z,1.87
2023-02-25T19:27:53.751Z,5.18
2023-02-25T19:30:29.362Z,1.12
2023-02-25T19:33:02.895Z,2.50
2023-02-25T19:35:34.299Z,1.70
2023-02-25T19:38:02.077Z,4.05
2023-02-25T19:40:30.009Z,2.97
2023-02-25T19:42:58.874Z,6.00
2023-02-25T19:45:27.008Z,2.53
2023-02-25T19:47:54.851Z,4.03
2023-02-25T19:50:24.838Z,1.98
2023-02-25T19:52:53.702Z,3.72
2023-02-25T19:55:21.189Z,2.15
2023-02-25T19:57:48.352Z,2.67
2023-02-25T20:00:18.696Z,4.28
2023-02-25T20:02:46.216Z,3.12
2023-02-25T20:05:14.645Z,1.60
2023-02-25T20:07:43.206Z,4.43
2023-02-25T20:10:13.672Z,2.55
2023-02-25T20:12:42.212Z,4.15
2023-02-25T20:15:10.828Z,2.78
2023-02-25T20:17:39.425Z,2.08
2023-02-25T20:20:08.609Z,5.15
2023-02-25T20:22:36.456Z,3.25
2023-02-25T20:25:04.376Z,4.85
2023-02-25T20:27:31.453Z,2.17
2023-02-25T20:29:58.662Z,2.65
2023-02-25T20:32:29.962Z,6.47
2023-02-25T20:34:57.310Z,3.35
2023-02-25T20:37:31.947Z,2.37
2023-02-25T20:40:00.400Z,4.53
2023-02-25T20:42:30.237Z,4.32
2023-02-25T20:44:58.691Z,3.60
2023-02-25T20:47:32.223Z,3.87
2023-02-25T20:49:59.526Z,3.37
2023-02-25T20:52:27.445Z,6.25
2023-02-25T20:54:54.847Z,3.80
2023-02-25T20:57:23.890Z,7.18
2023-02-25T20:59:51.417Z,3.17
2023-02-25T21:02:18.628Z,3.78
2023-02-25T21:04:45.955Z,2.83
2023-02-25T21:07:13.681Z,4.03
2023-02-25T21:09:40.945Z,5.40
2023-02-25T21:12:08.462Z,4.22
2023-02-25T21:14:35.886Z,4.72
2023-02-25T21:17:06.087Z,3.97
2023-02-25T21:19:33.126Z,5.28
2023-02-25T21:22:00.432Z,3.92
2023-02-25T21:24:29.437Z,3.50
2023-02-25T21:26:56.503Z,4.25
2023-02-25T21:29:23.862Z,3.70
2023-02-25T21:31:50.935Z,3.72
2023-02-25T21:34:17.998Z,3.53
2023-02-25T21:36:45.305Z,7.75
2023-02-25T21:39:12.608Z,4.10
2023-02-25T21:41:44.219Z,3.83
2023-02-25T21:44:13.364Z,3.22
2023-02-25T21:46:40.907Z,3.70
2023-02-25T21:49:10.463Z,4.20
2023-02-25T21:51:37.917Z,5.50
2023-02-25T21:54:05.037Z,5.78
2023-02-25T21:56:32.777Z,3.10
2023-02-25T21:59:02.136Z,3.00
2023-02-25T22:01:32.639Z,5.03
2023-02-25T22:04:00.393Z,3.22
2023-02-25T22:06:28.053Z,5.80
2023-02-25T22:08:55.798Z,8.50
2023-02-25T22:11:32.506Z,4.90
2023-02-25T22:14:00.910Z,7.50
2023-02-25T22:16:29.314Z,6.37
2023-02-25T22:18:56.846Z,5.50
2023-02-25T22:21:29.045Z,5.18
2023-02-25T22:23:59.323Z,4.18
2023-02-25T22:26:32.216Z,7.28
2023-02-25T22:29:02.080Z,3.62
2023-02-25T22:31:29.825Z,5.18
2023-02-25T22:33:57.520Z,2.65
2023-02-25T22:36:25.551Z,4.75
2023-02-25T22:38:53.142Z,4.72
2023-02-25T22:41:23.219Z,9.20
2023-02-25T22:43:51.059Z,2.85
2023-02-25T22:46:24.257Z,4.82
2023-02-25T22:48:52.297Z,5.60
2023-02-25T22:51:26.419Z,3.78
2023-02-25T22:53:55.047Z,3.65
2023-02-25T22:56:23.208Z,5.18
2023-02-25T22:58:50.630Z,6.25
2023-02-25T23:01:19.934Z,10.30
2023-02-25T23:03:47.941Z,5.35
2023-02-25T23:06:17.030Z,4.57
2023-02-25T23:08:44.718Z,4.95
2023-02-25T23:11:18.227Z,3.80
2023-02-25T23:13:52.523Z,6.50
2023-02-25T23:16:22.861Z,4.60
2023-02-25T23:18:51.343Z,3.17
2023-02-25T23:21:20.388Z,3.33
2023-02-25T23:23:50.533Z,4.62
2023-02-25T23:26:21.620Z,4.03
2023-02-25T23:28:49.267Z,3.40
2023-02-25T23:31:29.015Z,3.05
2023-02-25T23:34:02.170Z,3.37
2023-02-25T23:36:29.785Z,6.55
2023-02-25T23:39:00.516Z,4.05
2023-02-25T23:41:28.161Z,2.45
2023-02-25T23:43:58.173Z,3.08
2023-02-25T23:46:27.361Z,3.47
2023-02-25T23:48:55.981Z,4.43
2023-02-25T23:51:23.949Z,4.03
2023-02-25T23:54:01.076Z,3.65
2023-02-25T23:56:30.931Z,3.08
2023-02-25T23:58:58.607Z,5.18
